createdAt,value
2019-05-12T00:00:32.885Z,0
2019-05-12T00:01:35.342Z,0
2019-05-12T00:02:39.636Z,0
2019-05-12T00:03:42.651Z,0
2019-05-12T00:04:44.840Z,0
2019-05-12T00:05:48.300Z,0
2019-05-12T00:06:50.775Z,0
2019-05-12T00:07:52.920Z,0
2019-05-12T00:08:55.108Z,0
2019-05-12T00:10:00.063Z,0
2019-05-12T00:11:02.215Z,0
2019-05-12T00:12:04.306Z,0
2019-05-12T00:13:09.346Z,0
2019-05-12T00:14:11.763Z,0
2019-05-12T00:15:13.912Z,0
2019-05-12T00:16:17.670Z,0
2019-05-12T00:17:19.919Z,0
2019-05-12T00:18:22.060Z,0
2019-05-12T00:19:24.141Z,0
2019-05-12T00:20:28.288Z,0
2019-05-12T00:21:30.696Z,0
2019-05-12T00:22:33.074Z,0
2019-05-12T00:23:35.223Z,0
2019-05-12T00:24:39.669Z,0
2019-05-12T00:25:42.046Z,0
2019-05-12T00:26:44.467Z,0
2019-05-12T00:27:54.893Z,0
2019-05-12T00:29:04.235Z,0
2019-05-12T00:30:12.776Z,0
2019-05-12T00:31:22.893Z,0
2019-05-12T00:32:28.171Z,0
2019-05-12T00:33:34.310Z,0
2019-05-12T00:34:40.743Z,0
2019-05-12T00:35:45.640Z,0
2019-05-12T00:36:51.058Z,0
2019-05-12T00:38:00.535Z,0
2019-05-12T00:39:04.073Z,0
2019-05-12T00:40:11.761Z,0
2019-05-12T00:41:18.275Z,0
2019-05-12T00:42:28.728Z,0
2019-05-12T00:43:35.105Z,0
2019-05-12T00:44:41.384Z,0
2019-05-12T00:45:48.192Z,0
2019-05-12T00:46:53.944Z,0
2019-05-12T00:48:01.283Z,0
2019-05-12T00:49:08.099Z,0
2019-05-12T00:50:13.157Z,0
2019-05-12T00:51:19.513Z,0
2019-05-12T00:52:21.735Z,0
2019-05-12T00:53:35.971Z,0
2019-05-12T00:54:45.515Z,0
2019-05-12T00:55:50.628Z,0
2019-05-12T00:56:53.005Z,0
2019-05-12T00:57:57.869Z,0
2019-05-12T00:59:00.468Z,0
2019-05-12T01:00:03.739Z,0
2019-05-12T01:01:08.107Z,0
2019-05-12T01:02:10.809Z,0
2019-05-12T01:03:12.951Z,0
2019-05-12T01:04:17.532Z,0
2019-05-12T01:05:19.900Z,0
2019-05-12T01:06:23.042Z,0
2019-05-12T01:07:27.615Z,0
2019-05-12T01:08:35.383Z,0
2019-05-12T01:09:44.403Z,0
2019-05-12T01:10:54.571Z,0
2019-05-12T01:12:02.385Z,0
2019-05-12T01:13:04.892Z,0
2019-05-12T01:14:11.395Z,0
2019-05-12T01:15:24.199Z,0
2019-05-12T01:16:33.818Z,0
2019-05-12T01:17:38.398Z,0
2019-05-12T01:18:43.351Z,0
2019-05-12T01:19:48.197Z,0
2019-05-12T01:20:51.993Z,0
2019-05-12T01:21:58.660Z,0
2019-05-12T01:23:04.698Z,0
2019-05-12T01:24:12.863Z,0
2019-05-12T01:25:18.111Z,0
2019-05-12T01:26:21.868Z,0
2019-05-12T01:27:30.509Z,0
2019-05-12T01:28:38.130Z,0
2019-05-12T01:29:41.257Z,0
2019-05-12T01:30:47.973Z,0
2019-05-12T01:31:55.754Z,0
2019-05-12T01:33:09.498Z,0
2019-05-12T01:34:19.116Z,0
2019-05-12T01:35:30.328Z,0
2019-05-12T01:36:40.962Z,0
2019-05-12T01:37:53.299Z,0
2019-05-12T01:39:09.365Z,0
2019-05-12T01:40:19.113Z,0
2019-05-12T01:41:33.022Z,0
2019-05-12T01:42:44.159Z,0
2019-05-12T01:43:55.104Z,0
2019-05-12T01:45:03.080Z,0
2019-05-12T01:46:13.082Z,0
2019-05-12T01:47:18.705Z,0
2019-05-12T01:48:23.939Z,0
2019-05-12T01:49:31.671Z,0
2019-05-12T01:50:34.805Z,0
2019-05-12T01:51:41.947Z,0
2019-05-12T01:52:47.808Z,0
2019-05-12T01:53:51.662Z,0
2019-05-12T01:55:20.298Z,0
2019-05-12T01:56:23.362Z,0
2019-05-12T01:57:31.109Z,0
2019-05-12T01:58:34.292Z,0
2019-05-12T01:59:41.103Z,0
2019-05-12T02:00:44.551Z,0
2019-05-12T02:01:48.747Z,0
2019-05-12T02:02:52.843Z,0
2019-05-12T02:04:00.525Z,0
2019-05-12T02:05:07.795Z,0
2019-05-12T02:06:13.247Z,0
2019-05-12T02:07:18.480Z,0
2019-05-12T02:08:21.623Z,0
2019-05-12T02:09:24.276Z,0
2019-05-12T02:10:29.159Z,0
2019-05-12T02:11:32.598Z,0
2019-05-12T02:12:38.286Z,0
2019-05-12T02:13:40.712Z,0
2019-05-12T02:14:44.041Z,0
2019-05-12T02:15:49.903Z,0
2019-05-12T02:16:53.334Z,0
2019-05-12T02:18:00.426Z,0
2019-05-12T02:19:04.145Z,0
2019-05-12T02:20:12.707Z,0
2019-05-12T02:21:15.514Z,0
2019-05-12T02:22:21.640Z,0
2019-05-12T02:23:28.042Z,0
2019-05-12T02:24:31.294Z,0
2019-05-12T02:25:38.345Z,0
2019-05-12T02:28:13.372Z,0
2019-05-12T02:29:18.064Z,0
2019-05-12T02:30:20.758Z,0
2019-05-12T02:31:23.489Z,0
2019-05-12T02:32:40.740Z,0
2019-05-12T02:34:01.548Z,0
2019-05-12T02:35:08.544Z,0
2019-05-12T02:36:10.809Z,0
2019-05-12T02:37:18.389Z,0
2019-05-12T02:38:20.621Z,0
2019-05-12T02:39:26.979Z,4
2019-05-12T02:40:29.349Z,4
2019-05-12T02:41:34.331Z,4
2019-05-12T02:42:37.689Z,0
2019-05-12T02:43:40.406Z,4
2019-05-12T02:44:44.310Z,4
2019-05-12T02:45:47.529Z,4
2019-05-12T02:46:51.266Z,4
2019-05-12T02:47:57.215Z,8
2019-05-12T02:48:59.848Z,4
2019-05-12T02:50:04.937Z,8
2019-05-12T02:51:08.446Z,8
2019-05-12T02:52:11.348Z,12
2019-05-12T02:53:17.401Z,12
2019-05-12T02:54:20.241Z,16
2019-05-12T02:55:26.615Z,20
2019-05-12T02:56:28.966Z,16
2019-05-12T02:57:34.088Z,20
2019-05-12T02:58:36.646Z,28
2019-05-12T02:59:40.190Z,28
2019-05-12T03:00:46.493Z,32
2019-05-12T03:01:48.889Z,36
2019-05-12T03:02:54.476Z,40
2019-05-12T03:03:57.503Z,48
2019-05-12T03:05:00.307Z,52
2019-05-12T03:06:05.346Z,60
2019-05-12T03:07:07.689Z,68
2019-05-12T03:08:10.077Z,72
2019-05-12T03:09:15.062Z,88
2019-05-12T03:10:17.826Z,92
2019-05-12T03:11:19.913Z,108
2019-05-12T03:12:25.165Z,112
2019-05-12T03:13:27.712Z,124
2019-05-12T03:14:30.221Z,136
2019-05-12T03:15:45.685Z,152
2019-05-12T03:16:47.819Z,160
2019-05-12T03:17:49.904Z,168
2019-05-12T03:18:55.650Z,192
2019-05-12T03:19:58.002Z,212
2019-05-12T03:21:00.471Z,232
2019-05-12T03:22:07.453Z,240
2019-05-12T03:23:09.486Z,256
2019-05-12T03:24:14.416Z,280
2019-05-12T03:25:24.939Z,304
2019-05-12T03:26:36.203Z,340
2019-05-12T03:27:39.143Z,368
2019-05-12T03:28:44.296Z,396
2019-05-12T03:29:47.411Z,416
2019-05-12T03:30:50.067Z,452
2019-05-12T03:32:00.022Z,480
2019-05-12T03:33:07.946Z,496
2019-05-12T03:34:47.252Z,560
2019-05-12T03:35:52.627Z,612
2019-05-12T03:37:19.161Z,656
2019-05-12T03:38:24.765Z,688
2019-05-12T03:39:30.428Z,744
2019-05-12T03:40:38.205Z,800
2019-05-12T03:41:44.216Z,888
2019-05-12T03:42:47.112Z,932
2019-05-12T03:43:49.968Z,948
2019-05-12T03:44:56.061Z,980
2019-05-12T03:45:58.213Z,1016
2019-05-12T03:47:00.946Z,1044
2019-05-12T03:48:06.860Z,1080
2019-05-12T03:49:08.957Z,1124
2019-05-12T03:50:14.442Z,1168
2019-05-12T03:51:17.023Z,1208
2019-05-12T03:52:19.829Z,1236
2019-05-12T03:53:25.358Z,1272
2019-05-12T03:54:27.498Z,1304
2019-05-12T03:55:36.298Z,1324
2019-05-12T03:56:49.036Z,1380
2019-05-12T03:57:51.112Z,1396
2019-05-12T03:58:57.286Z,1472
2019-05-12T04:00:00.649Z,1512
2019-05-12T04:01:06.652Z,1544
2019-05-12T04:02:09.483Z,1572
2019-05-12T04:03:14.882Z,1564
2019-05-12T04:04:18.286Z,1584
2019-05-12T04:05:20.646Z,1656
2019-05-12T04:06:26.740Z,1704
2019-05-12T04:07:28.792Z,1740
2019-05-12T04:08:30.891Z,1800
2019-05-12T04:09:36.539Z,1820
2019-05-12T04:10:38.605Z,1832
2019-05-12T04:11:44.056Z,1860
2019-05-12T04:12:46.921Z,1880
2019-05-12T04:13:49.289Z,1920
2019-05-12T04:14:54.716Z,1948
2019-05-12T04:15:57.236Z,1972
2019-05-12T04:16:59.332Z,2004
2019-05-12T04:18:06.519Z,2036
2019-05-12T04:19:09.126Z,2076
2019-05-12T04:20:14.747Z,2084
2019-05-12T04:21:17.469Z,2132
2019-05-12T04:22:19.825Z,2156
2019-05-12T04:23:24.713Z,2172
2019-05-12T04:24:27.155Z,2204
2019-05-12T04:25:46.149Z,2236
2019-05-12T04:27:18.734Z,2284
2019-05-12T04:28:24.208Z,2316
2019-05-12T04:29:27.428Z,2344
2019-05-12T04:30:29.781Z,2368
2019-05-12T04:31:34.529Z,2392
2019-05-12T04:32:37.266Z,2412
2019-05-12T04:33:39.755Z,2444
2019-05-12T04:34:46.511Z,2476
2019-05-12T04:35:48.587Z,2488
2019-05-12T04:36:50.691Z,2508
2019-05-12T04:37:56.497Z,2532
2019-05-12T04:38:58.635Z,2556
2019-05-12T04:40:01.105Z,2584
2019-05-12T04:41:07.525Z,2608
2019-05-12T04:42:10.288Z,2632
2019-05-12T04:43:16.016Z,2664
2019-05-12T04:44:18.484Z,2680
2019-05-12T04:45:21.186Z,2712
2019-05-12T04:46:27.155Z,2728
2019-05-12T04:47:29.222Z,2748
2019-05-12T04:48:35.331Z,2772
2019-05-12T04:49:38.080Z,2800
2019-05-12T04:50:40.971Z,2832
2019-05-12T04:51:46.937Z,2860
2019-05-12T04:52:49.601Z,2888
2019-05-12T04:53:54.556Z,2904
2019-05-12T04:54:57.289Z,2924
2019-05-12T04:56:10.444Z,2948
2019-05-12T04:57:26.852Z,2992
2019-05-12T04:58:28.941Z,3008
2019-05-12T04:59:34.161Z,3024
2019-05-12T05:00:37.091Z,3060
2019-05-12T05:01:39.911Z,3084
2019-05-12T05:02:44.917Z,3108
2019-05-12T05:03:48.117Z,3080
2019-05-12T05:04:50.200Z,3116
2019-05-12T05:05:54.848Z,3212
2019-05-12T05:06:57.145Z,3280
2019-05-12T05:07:59.245Z,3292
2019-05-12T05:09:01.308Z,3248
2019-05-12T05:10:07.641Z,3228
2019-05-12T05:11:09.785Z,3236
2019-05-12T05:12:13.892Z,3280
2019-05-12T05:13:16.123Z,3280
2019-05-12T05:14:18.257Z,3304
2019-05-12T05:15:20.323Z,3324
2019-05-12T05:16:24.811Z,3352
2019-05-12T05:17:27.437Z,3372
2019-05-12T05:18:29.588Z,3384
2019-05-12T05:19:33.674Z,3408
2019-05-12T05:20:35.890Z,3448
2019-05-12T05:21:38.281Z,3504
2019-05-12T05:22:40.355Z,3476
2019-05-12T05:23:44.225Z,3488
2019-05-12T05:24:46.745Z,3500
2019-05-12T05:25:48.830Z,3524
2019-05-12T05:26:51.290Z,3548
2019-05-12T05:27:56.187Z,3552
2019-05-12T05:28:58.303Z,3596
2019-05-12T05:30:00.379Z,3632
2019-05-12T05:31:05.876Z,3652
2019-05-12T05:32:07.942Z,3700
2019-05-12T05:33:10.310Z,3716
2019-05-12T05:34:14.808Z,3756
2019-05-12T05:35:17.914Z,3992
2019-05-12T05:36:20.358Z,4048
2019-05-12T05:37:23.902Z,4000
2019-05-12T05:38:26.151Z,4428
2019-05-12T05:39:28.231Z,4376
2019-05-12T05:40:30.465Z,4032
2019-05-12T05:41:34.490Z,3996
2019-05-12T05:42:54.607Z,4220
2019-05-12T05:43:58.467Z,4772
2019-05-12T05:45:00.671Z,4244
2019-05-12T05:46:07.700Z,4056
2019-05-12T05:47:10.370Z,3976
2019-05-12T05:48:15.330Z,4076
2019-05-12T05:49:17.423Z,3768
2019-05-12T05:50:24.699Z,4052
2019-05-12T05:51:33.425Z,4044
2019-05-12T05:52:55.903Z,4084
2019-05-12T05:53:58.196Z,4208
2019-05-12T05:55:00.305Z,4228
2019-05-12T05:56:37.577Z,4460
2019-05-12T05:58:10.201Z,4408
2019-05-12T05:59:14.970Z,4324
2019-05-12T06:00:34.648Z,4188
2019-05-12T06:01:46.698Z,4320
2019-05-12T06:02:56.936Z,4456
2019-05-12T06:04:04.176Z,5348
2019-05-12T06:05:11.032Z,4868
2019-05-12T06:06:15.940Z,6088
2019-05-12T06:07:18.003Z,4944
2019-05-12T06:08:40.617Z,5136
2019-05-12T06:09:43.296Z,5044
2019-05-12T06:10:45.838Z,5136
2019-05-12T06:11:48.307Z,5052
2019-05-12T06:12:50.863Z,4636
2019-05-12T06:13:55.701Z,4872
2019-05-12T06:14:59.779Z,6064
2019-05-12T06:16:04.164Z,7280
2019-05-12T06:17:06.907Z,5420
2019-05-12T06:18:09.014Z,5208
2019-05-12T06:19:11.100Z,5212
2019-05-12T06:20:15.720Z,5400
2019-05-12T06:21:17.829Z,5616
2019-05-12T06:22:19.903Z,5960
2019-05-12T06:23:24.010Z,7136
2019-05-12T06:24:40.725Z,6876
2019-05-12T06:25:51.447Z,8780
2019-05-12T06:27:00.565Z,9000
2019-05-12T06:28:25.046Z,10348
2019-05-12T06:29:33.307Z,9676
2019-05-12T06:30:44.085Z,9052
2019-05-12T06:31:54.061Z,9876
2019-05-12T06:32:56.345Z,10136
2019-05-12T06:33:58.425Z,8636
2019-05-12T06:35:02.144Z,9512
2019-05-12T06:36:07.494Z,10384
2019-05-12T06:37:28.761Z,10076
2019-05-12T06:38:35.523Z,9468
2019-05-12T06:39:44.913Z,10432
2019-05-12T06:40:47.056Z,11176
2019-05-12T06:41:49.127Z,9456
2019-05-12T06:42:53.839Z,10696
2019-05-12T06:43:59.148Z,10640
2019-05-12T06:45:03.264Z,10588
2019-05-12T06:46:05.909Z,14164
2019-05-12T06:47:08.385Z,11728
2019-05-12T06:48:10.624Z,13584
2019-05-12T06:49:17.400Z,13268
2019-05-12T06:50:20.018Z,11416
2019-05-12T06:51:25.879Z,11516
2019-05-12T06:52:28.045Z,9936
2019-05-12T06:53:31.097Z,12808
2019-05-12T06:54:35.498Z,11644
2019-05-12T06:55:39.269Z,10900
2019-05-12T06:56:44.576Z,10864
2019-05-12T06:58:31.968Z,9128
2019-05-12T06:59:36.444Z,8856
2019-05-12T07:00:38.471Z,11256
2019-05-12T07:01:40.561Z,9956
2019-05-12T07:02:49.858Z,11540
2019-05-12T07:04:00.468Z,12376
2019-05-12T07:05:14.333Z,12992
2019-05-12T07:06:19.601Z,11020
2019-05-12T07:07:24.528Z,13056
2019-05-12T07:09:01.260Z,13904
2019-05-12T07:10:47.791Z,14476
2019-05-12T07:12:08.000Z,12820
2019-05-12T07:13:14.583Z,15032
2019-05-12T07:14:31.299Z,16408
2019-05-12T07:15:40.253Z,14972
2019-05-12T07:16:45.426Z,16076
2019-05-12T07:17:49.710Z,16392
2019-05-12T07:18:57.042Z,16572
2019-05-12T07:19:59.128Z,16056
2019-05-12T07:21:01.275Z,15148
2019-05-12T07:22:23.266Z,12412
2019-05-12T07:23:49.965Z,12100
2019-05-12T07:24:54.808Z,10592
2019-05-12T07:25:57.263Z,10580
2019-05-12T07:27:03.761Z,9984
2019-05-12T07:28:11.331Z,11176
2019-05-12T07:29:16.492Z,9056
2019-05-12T07:30:18.845Z,9392
2019-05-12T07:31:23.163Z,10208
2019-05-12T07:32:25.356Z,10780
2019-05-12T07:33:32.673Z,12724
2019-05-12T07:34:47.616Z,11964
2019-05-12T07:35:53.082Z,13444
2019-05-12T07:37:08.085Z,10076
2019-05-12T07:38:12.006Z,9536
2019-05-12T07:39:27.572Z,10904
2019-05-12T07:40:32.311Z,9752
2019-05-12T07:41:42.155Z,8572
2019-05-12T07:42:56.627Z,8676
2019-05-12T07:44:00.720Z,8484
2019-05-12T07:45:05.512Z,8888
2019-05-12T07:46:07.666Z,8544
2019-05-12T07:47:09.747Z,7728
2019-05-12T07:48:13.845Z,9096
2019-05-12T07:49:16.031Z,8108
2019-05-12T07:50:39.716Z,8904
2019-05-12T07:51:41.802Z,10024
2019-05-12T07:52:46.319Z,8304
2019-05-12T07:53:55.072Z,7876
2019-05-12T07:55:01.400Z,10012
2019-05-12T07:56:06.530Z,10624
2019-05-12T07:57:11.633Z,10604
2019-05-12T07:58:19.683Z,12564
2019-05-12T07:59:26.530Z,11820
2019-05-12T08:00:45.437Z,12444
2019-05-12T08:01:51.807Z,14172
2019-05-12T08:02:56.811Z,16344
2019-05-12T08:04:01.101Z,13888
2019-05-12T08:05:06.016Z,13272
2019-05-12T08:06:25.221Z,14308
2019-05-12T08:07:29.795Z,16232
2019-05-12T08:08:33.947Z,15644
2019-05-12T08:09:36.745Z,14624
2019-05-12T08:10:39.345Z,11588
2019-05-12T08:11:43.366Z,11392
2019-05-12T08:12:45.673Z,14292
2019-05-12T08:14:03.578Z,28768
2019-05-12T08:15:09.554Z,62112
2019-05-12T08:16:14.167Z,91104
2019-05-12T08:17:43.849Z,94560
2019-05-12T08:19:03.743Z,91936
2019-05-12T08:20:24.397Z,34112
2019-05-12T08:21:26.877Z,75808
2019-05-12T08:22:29.607Z,101280
2019-05-12T08:23:33.833Z,98816
2019-05-12T08:24:42.964Z,94240
2019-05-12T08:25:53.935Z,93920
2019-05-12T08:27:02.976Z,95424
2019-05-12T08:28:15.317Z,93152
2019-05-12T08:29:43.274Z,97088
2019-05-12T08:30:49.867Z,95328
2019-05-12T08:31:56.791Z,97152
2019-05-12T08:33:03.524Z,100544
2019-05-12T08:34:13.626Z,97952
2019-05-12T08:35:25.403Z,95904
2019-05-12T08:36:44.826Z,96896
2019-05-12T08:38:00.378Z,99776
2019-05-12T08:39:06.171Z,98720
2019-05-12T08:40:27.719Z,100288
2019-05-12T08:41:30.617Z,101536
2019-05-12T08:42:35.614Z,99808
2019-05-12T08:43:40.430Z,103840
2019-05-12T08:45:00.267Z,106624
2019-05-12T08:46:12.050Z,102880
2019-05-12T08:47:17.909Z,101600
2019-05-12T08:48:22.247Z,102080
2019-05-12T08:49:32.927Z,100160
2019-05-12T08:51:05.168Z,100992
2019-05-12T08:52:23.530Z,103936
2019-05-12T08:53:26.375Z,102112
2019-05-12T08:54:28.511Z,99680
2019-05-12T08:55:32.434Z,97408
2019-05-12T08:56:37.875Z,93504
2019-05-12T08:57:40.962Z,143968
2019-05-12T08:58:54.292Z,97056
2019-05-12T09:00:02.685Z,97824
2019-05-12T09:01:10.711Z,98688
2019-05-12T09:02:15.848Z,98528
2019-05-12T09:03:20.268Z,99776
2019-05-12T09:04:34.964Z,99392
2019-05-12T09:05:38.354Z,99008
2019-05-12T09:06:43.436Z,101312
2019-05-12T09:07:46.017Z,102432
2019-05-12T09:08:49.596Z,106496
2019-05-12T09:09:53.337Z,107744
2019-05-12T09:10:55.737Z,107872
2019-05-12T09:11:58.568Z,105344
2019-05-12T09:13:01.090Z,104384
2019-05-12T09:14:06.508Z,106240
2019-05-12T09:15:09.113Z,106688
2019-05-12T09:16:13.199Z,102688
2019-05-12T09:17:16.298Z,102112
2019-05-12T09:18:19.373Z,101248
2019-05-12T09:19:24.761Z,98624
2019-05-12T09:20:29.283Z,98784
2019-05-12T09:21:34.079Z,101696
2019-05-12T09:22:39.280Z,103168
2019-05-12T09:23:44.917Z,102656
2019-05-12T09:24:48.209Z,98688
2019-05-12T09:25:50.362Z,97536
2019-05-12T09:27:04.863Z,100320
2019-05-12T09:28:10.980Z,102208
2019-05-12T09:29:15.701Z,104992
2019-05-12T09:30:17.844Z,104672
2019-05-12T09:31:25.216Z,104896
2019-05-12T09:32:33.838Z,102112
2019-05-12T09:33:57.889Z,97152
2019-05-12T09:35:18.241Z,100032
2019-05-12T09:36:21.675Z,106272
2019-05-12T09:37:30.800Z,105024
2019-05-12T09:38:45.124Z,100192
2019-05-12T09:39:48.487Z,99840
2019-05-12T09:41:00.680Z,101696
2019-05-12T09:42:07.365Z,101088
2019-05-12T09:43:10.798Z,99072
2019-05-12T09:44:20.218Z,99840
2019-05-12T09:45:33.382Z,100736
2019-05-12T09:46:37.554Z,100096
2019-05-12T09:47:40.425Z,103488
2019-05-12T09:48:51.806Z,103424
2019-05-12T09:49:57.225Z,104384
2019-05-12T09:51:01.989Z,107104
2019-05-12T09:52:13.693Z,104896
2019-05-12T09:53:28.957Z,103648
2019-05-12T09:54:35.043Z,104896
2019-05-12T09:55:45.666Z,105376
2019-05-12T09:56:49.785Z,107872
2019-05-12T09:58:03.946Z,109184
2019-05-12T09:59:17.071Z,109856
2019-05-12T10:00:30.257Z,109600
2019-05-12T10:01:39.760Z,107424
2019-05-12T10:02:51.035Z,108736
2019-05-12T10:04:10.227Z,108928
2019-05-12T10:05:21.808Z,104992
2019-05-12T10:06:24.645Z,100960
2019-05-12T10:07:27.120Z,98528
2019-05-12T10:08:35.521Z,100320
2019-05-12T10:09:39.990Z,98464
2019-05-12T10:10:44.581Z,99648
2019-05-12T10:11:51.751Z,100960
2019-05-12T10:13:07.591Z,99264
2019-05-12T10:14:11.084Z,100320
2019-05-12T10:15:18.532Z,103008
2019-05-12T10:16:30.518Z,105760
2019-05-12T10:17:35.165Z,104544
2019-05-12T10:18:42.862Z,105184
2019-05-12T10:19:58.050Z,106080
2019-05-12T10:21:00.431Z,101760
2019-05-12T10:22:03.150Z,97152
2019-05-12T10:23:10.080Z,96640
2019-05-12T10:24:32.351Z,104960
2019-05-12T10:26:01.315Z,108608
2019-05-12T10:27:20.983Z,106368
2019-05-12T10:28:36.647Z,102304
2019-05-12T10:29:39.026Z,101216
2019-05-12T10:30:41.294Z,101248
2019-05-12T10:31:57.888Z,103648
2019-05-12T10:33:00.062Z,102784
2019-05-12T10:34:05.173Z,100928
2019-05-12T10:35:12.139Z,102560
2019-05-12T10:36:28.651Z,107968
2019-05-12T10:37:30.742Z,108192
2019-05-12T10:38:34.329Z,106016
2019-05-12T10:39:36.534Z,104416
2019-05-12T10:40:38.685Z,107040
2019-05-12T10:41:40.788Z,106912
2019-05-12T10:42:49.171Z,105248
2019-05-12T10:43:54.174Z,103904
2019-05-12T10:44:59.814Z,104192
2019-05-12T10:46:04.153Z,110304
2019-05-12T10:47:06.343Z,112032
2019-05-12T10:48:08.514Z,110176
2019-05-12T10:49:10.872Z,108128
2019-05-12T10:50:15.368Z,104544
2019-05-12T10:51:17.494Z,103488
2019-05-12T10:52:19.865Z,103168
2019-05-12T10:53:23.469Z,102112
2019-05-12T10:54:26.008Z,100192
2019-05-12T10:55:28.168Z,96224
2019-05-12T10:56:30.267Z,93408
2019-05-12T10:57:33.348Z,92416
2019-05-12T10:58:35.619Z,93216
2019-05-12T10:59:38.650Z,96096
2019-05-12T11:00:50.570Z,98592
2019-05-12T11:02:09.279Z,102112
2019-05-12T11:03:12.911Z,98048
2019-05-12T11:04:22.789Z,95040
2019-05-12T11:05:45.426Z,96384
2019-05-12T11:06:48.536Z,101280
2019-05-12T11:07:50.771Z,101216
2019-05-12T11:08:55.237Z,101760
2019-05-12T11:10:02.300Z,103776
2019-05-12T11:11:24.669Z,104672
2019-05-12T11:12:29.170Z,100768
2019-05-12T11:13:33.670Z,98816
2019-05-12T11:14:36.203Z,96480
2019-05-12T11:15:39.404Z,95360
2019-05-12T11:16:54.096Z,95456
2019-05-12T11:17:57.173Z,96224
2019-05-12T11:19:00.196Z,99232
2019-05-12T11:20:14.799Z,103712
2019-05-12T11:21:16.900Z,107520
2019-05-12T11:22:18.987Z,106336
2019-05-12T11:23:21.151Z,105568
2019-05-12T11:24:26.052Z,106336
2019-05-12T11:25:28.433Z,110208
2019-05-12T11:26:30.566Z,112480
2019-05-12T11:27:34.492Z,108992
2019-05-12T11:28:36.991Z,102656
2019-05-12T11:29:45.918Z,102976
2019-05-12T11:30:51.774Z,105600
2019-05-12T11:31:54.038Z,104320
2019-05-12T11:32:59.265Z,102336
2019-05-12T11:34:04.545Z,103488
2019-05-12T11:35:07.621Z,102880
2019-05-12T11:36:09.735Z,100288
2019-05-12T11:37:14.658Z,100192
2019-05-12T11:38:16.833Z,95680
2019-05-12T11:39:18.867Z,95200
2019-05-12T11:40:21.006Z,94432
2019-05-12T11:41:28.343Z,94400
2019-05-12T11:42:33.427Z,98528
2019-05-12T11:43:36.020Z,104896
2019-05-12T11:44:38.115Z,106784
2019-05-12T11:45:40.333Z,104832
2019-05-12T11:46:45.209Z,101568
2019-05-12T11:47:47.362Z,102080
2019-05-12T11:48:50.490Z,103040
2019-05-12T11:49:58.451Z,105184
2019-05-12T11:51:14.552Z,108512
2019-05-12T11:52:19.331Z,107616
2019-05-12T11:53:27.450Z,107904
2019-05-12T11:54:41.055Z,104704
2019-05-12T11:55:55.492Z,102752
2019-05-12T11:56:57.995Z,104000
2019-05-12T11:58:05.660Z,104448
2019-05-12T11:59:14.325Z,103680
2019-05-12T12:00:16.876Z,108224
2019-05-12T12:01:18.973Z,109888
2019-05-12T12:02:26.089Z,108544
2019-05-12T12:03:35.051Z,108000
2019-05-12T12:04:37.158Z,108800
2019-05-12T12:05:39.258Z,109408
2019-05-12T12:06:43.680Z,102816
2019-05-12T12:07:50.733Z,101920
2019-05-12T12:08:57.881Z,104672
2019-05-12T12:10:00.093Z,102784
2019-05-12T12:11:05.014Z,102496
2019-05-12T12:12:29.259Z,60800
2019-05-12T12:13:33.555Z,108416
2019-05-12T12:14:40.087Z,14968
2019-05-12T12:15:54.753Z,111232
2019-05-12T12:17:13.585Z,106496
2019-05-12T12:18:15.831Z,105792
2019-05-12T12:19:18.197Z,104800
2019-05-12T12:20:22.733Z,102560
2019-05-12T12:21:26.628Z,105536
2019-05-12T12:22:29.899Z,103456
2019-05-12T12:23:33.420Z,101984
2019-05-12T12:24:38.256Z,101088
2019-05-12T12:25:42.942Z,102752
2019-05-12T12:26:54.660Z,100672
2019-05-12T12:27:56.812Z,102368
2019-05-12T12:28:58.945Z,13908
2019-05-12T12:30:13.570Z,17828
2019-05-12T12:31:29.410Z,110656
2019-05-12T12:32:40.621Z,17380
2019-05-12T12:33:47.072Z,18432
2019-05-12T12:34:49.368Z,119200
2019-05-12T12:35:56.433Z,117440
2019-05-12T12:37:05.138Z,117440
2019-05-12T12:38:07.241Z,18184
2019-05-12T12:39:09.340Z,113632
2019-05-12T12:40:11.517Z,16212
2019-05-12T12:41:16.323Z,29504
2019-05-12T12:42:18.469Z,35744
2019-05-12T12:43:20.558Z,15944
2019-05-12T12:44:24.155Z,34944
2019-05-12T12:45:30.251Z,15488
2019-05-12T12:46:45.069Z,108896
2019-05-12T12:47:54.022Z,107392
2019-05-12T12:49:00.145Z,108480
2019-05-12T12:50:15.010Z,102912
2019-05-12T12:51:34.104Z,101152
2019-05-12T12:52:38.608Z,20416
2019-05-12T12:53:50.613Z,21312
2019-05-12T12:54:54.294Z,99936
2019-05-12T12:56:15.965Z,98432
2019-05-12T12:57:33.486Z,102304
2019-05-12T12:58:36.042Z,103296
2019-05-12T12:59:42.740Z,86912
2019-05-12T13:00:56.937Z,97504
2019-05-12T13:02:05.675Z,94656
2019-05-12T13:03:14.127Z,96896
2019-05-12T13:04:31.391Z,100896
2019-05-12T13:05:54.090Z,94816
2019-05-12T13:06:56.379Z,106016
2019-05-12T13:07:58.476Z,105536
2019-05-12T13:09:00.607Z,108032
2019-05-12T13:10:09.123Z,103488
2019-05-12T13:11:14.210Z,26784
2019-05-12T13:12:19.388Z,80096
2019-05-12T13:13:24.476Z,97888
2019-05-12T13:14:28.417Z,101952
2019-05-12T13:15:40.198Z,15040
2019-05-12T13:16:43.813Z,13644
2019-05-12T13:17:57.433Z,13044
2019-05-12T13:19:03.664Z,12224
2019-05-12T13:20:19.112Z,32544
2019-05-12T13:21:21.208Z,97664
2019-05-12T13:22:24.485Z,97248
2019-05-12T13:23:36.549Z,97920
2019-05-12T13:24:43.934Z,96864
2019-05-12T13:25:50.457Z,94432
2019-05-12T13:26:57.019Z,95168
2019-05-12T13:28:01.415Z,21664
2019-05-12T13:29:34.431Z,96064
2019-05-12T13:30:46.847Z,89248
2019-05-12T13:31:53.739Z,87360
2019-05-12T13:32:55.971Z,82784
2019-05-12T13:33:58.079Z,80896
2019-05-12T13:35:00.215Z,82976
2019-05-12T13:36:04.259Z,84448
2019-05-12T13:37:09.239Z,87136
2019-05-12T13:38:23.595Z,88544
2019-05-12T13:39:26.336Z,88672
2019-05-12T13:40:29.703Z,88160
2019-05-12T13:41:43.603Z,18880
2019-05-12T13:42:45.869Z,88992
2019-05-12T13:43:54.390Z,70720
2019-05-12T13:45:03.633Z,14404
2019-05-12T13:46:05.834Z,12856
2019-05-12T13:47:07.981Z,12908
2019-05-12T13:48:15.652Z,16596
2019-05-12T13:49:25.018Z,45472
2019-05-12T13:50:48.681Z,82272
2019-05-12T13:51:50.882Z,21024
2019-05-12T13:52:55.125Z,46528
2019-05-12T13:54:11.576Z,14380
2019-05-12T13:55:16.091Z,12352
2019-05-12T13:56:19.173Z,11316
2019-05-12T13:57:37.902Z,10796
2019-05-12T13:58:59.279Z,10872
2019-05-12T14:00:06.243Z,24192
2019-05-12T14:01:20.167Z,80672
2019-05-12T14:02:25.338Z,79424
2019-05-12T14:03:28.076Z,77632
2019-05-12T14:04:30.309Z,69088
2019-05-12T14:05:34.998Z,17460
2019-05-12T14:06:37.911Z,11352
2019-05-12T14:07:40.386Z,11988
2019-05-12T14:08:45.281Z,51168
2019-05-12T14:09:47.829Z,79584
2019-05-12T14:10:58.641Z,11956
2019-05-12T14:12:04.276Z,11208
2019-05-12T14:13:06.881Z,12272
2019-05-12T14:14:15.104Z,10704
2019-05-12T14:15:17.891Z,11052
2019-05-12T14:16:19.985Z,11448
2019-05-12T14:17:25.706Z,16704
2019-05-12T14:18:43.977Z,11976
2019-05-12T14:19:46.320Z,79360
2019-05-12T14:20:50.725Z,10304
2019-05-12T14:22:03.491Z,12140
2019-05-12T14:23:05.706Z,77472
2019-05-12T14:24:07.792Z,71488
2019-05-12T14:25:09.962Z,68608
2019-05-12T14:26:13.611Z,68512
2019-05-12T14:27:18.984Z,70048
2019-05-12T14:28:30.873Z,71872
2019-05-12T14:29:35.628Z,9224
2019-05-12T14:30:41.140Z,8124
2019-05-12T14:32:02.105Z,7512
2019-05-12T14:33:07.259Z,7372
2019-05-12T14:34:10.303Z,7796
2019-05-12T14:35:25.279Z,11024
2019-05-12T14:36:44.081Z,64608
2019-05-12T14:37:47.562Z,67360
2019-05-12T14:38:49.703Z,11848
2019-05-12T14:39:53.599Z,8744
2019-05-12T14:41:01.173Z,7428
2019-05-12T14:42:16.012Z,9168
2019-05-12T14:43:21.246Z,8892
2019-05-12T14:44:26.139Z,62976
2019-05-12T14:45:29.935Z,8744
2019-05-12T14:46:34.373Z,7876
2019-05-12T14:47:54.612Z,10560